Accueil
METAR-TAF:

METAR-TAF

Aéroports :

Aéroport international de Bâle-Mulhouse-Fribourg

Bâle-Mulhouse, France

latitude: 47-36N, longitude: 007-31E, altitude: 270 m

Observation

Le bulletin a été fait il y a 31 minutes, à 19:00 UTC
Vent 6 kt de ouest/nord-ouest
Température 13°C
Humidité 88%
Pression 1030 hPa
Visibilité 10 km ou plus
Quelques nuages à une hauteur de 4300 ft

METAR: LFSB 061900Z AUTO 29006KT 9999 FEW043 13/11 Q1030 NOSIG

Heure: 21:31 (19:31 UTC)

Prévision

Le bulletin a été fait il y a 2 heures et 31 minutes, à 17:00 UTC
Prévision valable du 06 à 18 UTC au 07 à 18 UTC
Vent 5 kt de nord-ouest
Visibilité 10 km ou plus
Quelques nuages à une hauteur de 3000 ft
Probabilité 30% :
Temporairement
du 07 à 03 UTC au 07 à 08 UTC
Visibilité: 3000 m
bancs de brouillard

TAF: LFSB 061700Z 0618/0718 31005KT 9999 FEW030 PROB30 TEMPO 0703/0708 3000 BCFG

Observations et prévisions météorologiques de plus de 4000 aéroports (messages METAR et TAF).

Les stations disponibles sont représentées par des disques jaunes et rouges sur la carte.

Passer la souris dessus pour voir le nom de la station.

Cliquer dessus pour voir les observations et prévisions météorologiques.

Pour changer de carte: cliquez sur les boutons verts avec une croix noire pour zoomer, sur le bouton vert avec un tiret pour effectuer un zoom arrière, ou sur les flèches vertes pour les cartes adjacentes.


METAR-TAF: